Saint Joseph, MO

9:57 AM CDT on March 29, 2017 (GMT -0500)
KMOSTJOS3 | | Change Station

Elev 965 ft 39.77 °N, 94.82 °W | Updated 2 seconds ago

Rain
Rain
48.9 °F
Feels Like 46 °F
N
6.3
Wind Variable Wind from SSW
Gusts 10.1 mph

Today
High -- | Low -- °F
--% Chance of Precip.
Yesterday
High -- | Low -- °F
Precip. -- in
Pressure 29.86 in
Visibility 4.0 miles
Clouds Overcast 1000 ft
Windchill 46 °F
Dew Point 49 °F
Humidity 100%
Rainfall 0.51 in
Snow Depth Not available.
7:07 AM 7:40 PM
Waxing Crescent, 3% visible
METAR KSTJ 291453Z 09012G24KT 4SM -RA BR OVC010 09/09 A2985 RMK AO2 RAB44 CIG 009V014 SLP110 P0002 60002 T00890089 58015
Pressure 29.86 in
Visibility 4.0 miles
Clouds Overcast 1000 ft
Windchill 46 °F
Dew Point 49 °F
Humidity 100%
Rainfall 0.51 in
Snow Depth Not available.
7:07 AM 7:40 PM
Waxing Crescent, 3% visible
METAR KSTJ 291453Z 09012G24KT 4SM -RA BR OVC010 09/09 A2985 RMK AO2 RAB44 CIG 009V014 SLP110 P0002 60002 T00890089 58015

Get Severe Weather Alerts

Thanks for signing up!

Be on the lookout for a verification email in your inbox.

You'll start receiving the daily forecast at 8 AM.

×

10-Day Weather Forecast

Almanac

Astronomy

Mar. 29, 2017 Rise Set
Actual Time
Civil Twilight
Nautical Twilight
Astronomical Twilight
Moon
Length of Visible Light
Length of Day
Tomorrow will be .
, % of the Moon is Illuminated

Today's Extremes

State Highs State Lows

Community

WunderPhotos

Upload Photos

1,962,540 photos uploaded!

WunderBlog® & News

Nearby

Air Quality

  Air Quality AQ Index Pollutant
Not available.

Snow Depth

Station Depth Elevation

Earthquake Activity

City Distance Mag. Time & Date
Minimum magnitude displayed is 2.5.

Earthquake Activity

City Distance Mag. Time & Date
Minimum magnitude displayed is 2.5.

Coastal Water Temperatures

Place Temperature

Stations

Nearby Weather Stations

Station Location Temp. Windchill Dew Point Humidity Wind Precip. Elev Updated Type
                   

Watches & Warnings

There are currently no watches in effect.